Terminal Aerodrome Forecast
Issued by NWS

Home | Current Version | Previous Version | Text Only | Print | Product List | Glossary On
Versions: 1 2 3 4 5 6 7 8 9 10 11 12 13 14
000
FTUS45 KVEF 241724
TAFVGT
TAF
KVGT 241724Z 2418/2518 VRB05KT P6SM SKC
     FM242000 12007KT P6SM FEW250
     FM250300 33010KT P6SM FEW100 SCT250
     FM250700 33015KT P6SM FEW100 SCT250
     FM251300 34009KT P6SM SKC=

USA.gov is the U.S. government's official web portal to all federal, state and local government web resources and services.